PATC/TNC METAR and TAF weather

Enter ICAO airport designator
Station Type Date Time Source
PATC METAR 2020/01/24 20:55 UTC NOAA

PATC 242055Z 02019KT 10SM CLR M23/M26 A3038 RMK AO2A SLP301 52005


Station Type Date Time Source
PATC Decoded METAR 2020/01/24 20:55 UTC NOAA

Tin City Airways Facilities Sector, AK, United States (PATC) 65-34N 167-55W
Jan 24, 2020 - 03:55 PM EST / 2020.01.24 2055 UTC
Wind: from the NNE (020 degrees) at 22 MPH (19 KT):0
Visibility: 10 mile(s):0
Sky conditions: clear
Temperature: -9 F (-23 C)
Windchill: -34 F (-37 C):2
Dew Point: -14 F (-26 C)
Relative Humidity: 76%
Pressure (altimeter): 30.38 in. Hg (1028 hPa)
Pressure tendency: 0.01 inches (0.5 hPa) higher than three hours ago
ob: PATC 242055Z 02019KT 10SM CLR M23/M26 A3038 RMK AO2A SLP301 52005
cycle: 21

Station Type Date Time Source
PATC TAF 2016/08/27 04:12 UTC NOAA

TAF PATC 270400Z 2704/2810 18012G18KT 0400 FG OVC002 QNH3015INS TX10/2718Z TN06/2710Z

Example: see airport list